sensor_id;sensor_type;location;lat;lon;timestamp;pressure;altitude;pressure_sealevel;temperature;humidity
64189;BME280;50493;50.970;10.082;2023-04-19T00:02:01;100208.66;;;9.79;65.84
64189;BME280;50493;50.970;10.082;2023-04-19T00:04:27;100204.28;;;9.82;65.41
64189;BME280;50493;50.970;10.082;2023-04-19T00:06:52;100199.28;;;9.32;67.24
64189;BME280;50493;50.970;10.082;2023-04-19T00:09:19;100197.53;;;9.43;67.30
64189;BME280;50493;50.970;10.082;2023-04-19T00:11:44;100200.22;;;9.09;68.51
64189;BME280;50493;50.970;10.082;2023-04-19T00:14:09;100193.31;;;8.77;68.37
64189;BME280;50493;50.970;10.082;2023-04-19T00:16:35;100193.09;;;9.55;63.79
64189;BME280;50493;50.970;10.082;2023-04-19T00:19:00;100191.34;;;9.57;64.33
64189;BME280;50493;50.970;10.082;2023-04-19T00:21:26;100196.63;;;9.44;63.51
64189;BME280;50493;50.970;10.082;2023-04-19T00:23:52;100189.53;;;9.74;63.89
64189;BME280;50493;50.970;10.082;2023-04-19T00:26:19;100197.34;;;9.77;63.89
64189;BME280;50493;50.970;10.082;2023-04-19T00:28:44;100197.28;;;9.91;61.54
64189;BME280;50493;50.970;10.082;2023-04-19T00:31:10;100188.56;;;9.94;61.02
64189;BME280;50493;50.970;10.082;2023-04-19T00:33:35;100190.94;;;10.28;61.21
64189;BME280;50493;50.970;10.082;2023-04-19T00:36:01;100182.22;;;10.29;61.69
64189;BME280;50493;50.970;10.082;2023-04-19T00:38:26;100176.91;;;10.35;59.64
64189;BME280;50493;50.970;10.082;2023-04-19T00:40:51;100182.72;;;9.45;62.19
64189;BME280;50493;50.970;10.082;2023-04-19T00:43:18;100182.38;;;10.07;60.26
64189;BME280;50493;50.970;10.082;2023-04-19T00:45:44;100186.75;;;10.02;60.55
64189;BME280;50493;50.970;10.082;2023-04-19T00:48:10;100179.78;;;10.01;60.26
64189;BME280;50493;50.970;10.082;2023-04-19T00:50:35;100174.69;;;9.86;60.01
64189;BME280;50493;50.970;10.082;2023-04-19T00:53:01;100176.41;;;9.85;60.68
64189;BME280;50493;50.970;10.082;2023-04-19T00:55:26;100178.25;;;9.69;60.75
64189;BME280;50493;50.970;10.082;2023-04-19T00:57:52;100171.38;;;9.54;61.29
64189;BME280;50493;50.970;10.082;2023-04-19T01:00:19;100168.78;;;9.50;61.00
64189;BME280;50493;50.970;10.082;2023-04-19T01:02:45;100167.63;;;10.02;59.88
64189;BME280;50493;50.970;10.082;2023-04-19T01:05:10;100167.53;;;10.14;59.80
64189;BME280;50493;50.970;10.082;2023-04-19T01:07:36;100178.06;;;9.97;59.39
64189;BME280;50493;50.970;10.082;2023-04-19T01:10:02;100166.53;;;10.26;58.21
64189;BME280;50493;50.970;10.082;2023-04-19T01:12:27;100165.63;;;10.30;58.47
64189;BME280;50493;50.970;10.082;2023-04-19T01:14:53;100171.84;;;10.13;59.11
64189;BME280;50493;50.970;10.082;2023-04-19T01:17:19;100170.34;;;9.78;58.17
64189;BME280;50493;50.970;10.082;2023-04-19T01:19:45;100174.09;;;9.19;60.16
64189;BME280;50493;50.970;10.082;2023-04-19T01:22:15;100166.94;;;9.66;60.84
64189;BME280;50493;50.970;10.082;2023-04-19T01:24:40;100162.38;;;10.00;59.84
64189;BME280;50493;50.970;10.082;2023-04-19T01:27:06;100157.78;;;10.30;58.01
64189;BME280;50493;50.970;10.082;2023-04-19T01:29:32;100156.00;;;10.35;57.99
64189;BME280;50493;50.970;10.082;2023-04-19T01:31:57;100162.28;;;10.11;58.64
64189;BME280;50493;50.970;10.082;2023-04-19T01:34:22;100164.44;;;9.52;56.51
64189;BME280;50493;50.970;10.082;2023-04-19T01:36:48;100161.72;;;9.67;60.04
64189;BME280;50493;50.970;10.082;2023-04-19T01:39:14;100167.53;;;10.12;56.55
64189;BME280;50493;50.970;10.082;2023-04-19T01:41:40;100160.16;;;9.32;55.78
64189;BME280;50493;50.970;10.082;2023-04-19T01:44:05;100163.66;;;9.19;58.11
64189;BME280;50493;50.970;10.082;2023-04-19T01:46:30;100167.16;;;9.15;57.42
64189;BME280;50493;50.970;10.082;2023-04-19T01:48:56;100165.41;;;9.13;61.23
64189;BME280;50493;50.970;10.082;2023-04-19T01:51:21;100161.13;;;8.83;56.08
64189;BME280;50493;50.970;10.082;2023-04-19T01:53:47;100162.78;;;9.27;60.81
64189;BME280;50493;50.970;10.082;2023-04-19T01:56:19;100163.75;;;9.00;56.26
64189;BME280;50493;50.970;10.082;2023-04-19T01:58:45;100158.53;;;9.03;54.88
64189;BME280;50493;50.970;10.082;2023-04-19T02:01:10;100158.31;;;9.53;58.62
64189;BME280;50493;50.970;10.082;2023-04-19T02:03:36;100160.75;;;9.87;57.04
64189;BME280;50493;50.970;10.082;2023-04-19T02:06:02;100156.28;;;10.01;56.90
64189;BME280;50493;50.970;10.082;2023-04-19T02:08:27;100146.56;;;10.20;53.79
64189;BME280;50493;50.970;10.082;2023-04-19T02:10:53;100151.03;;;10.04;51.98
64189;BME280;50493;50.970;10.082;2023-04-19T02:13:19;100146.94;;;9.64;54.62
64189;BME280;50493;50.970;10.082;2023-04-19T02:15:44;100149.41;;;9.86;51.98
64189;BME280;50493;50.970;10.082;2023-04-19T02:18:10;100137.22;;;9.90;53.50
64189;BME280;50493;50.970;10.082;2023-04-19T02:20:36;100138.19;;;9.70;58.87
64189;BME280;50493;50.970;10.082;2023-04-19T02:23:01;100135.47;;;9.89;58.40
64189;BME280;50493;50.970;10.082;2023-04-19T02:25:26;100126.72;;;9.96;58.25
64189;BME280;50493;50.970;10.082;2023-04-19T02:27:52;100123.19;;;10.05;57.85
64189;BME280;50493;50.970;10.082;2023-04-19T02:30:19;100134.50;;;10.02;57.90
64189;BME280;50493;50.970;10.082;2023-04-19T02:32:46;100129.25;;;10.07;57.84
64189;BME280;50493;50.970;10.082;2023-04-19T02:35:11;100130.28;;;9.83;58.73
64189;BME280;50493;50.970;10.082;2023-04-19T02:37:37;100132.06;;;9.79;58.73
64189;BME280;50493;50.970;10.082;2023-04-19T02:40:02;100133.69;;;9.95;58.28
64189;BME280;50493;50.970;10.082;2023-04-19T02:42:29;100135.50;;;9.86;58.27
64189;BME280;50493;50.970;10.082;2023-04-19T02:44:55;100135.59;;;9.73;58.75
64189;BME280;50493;50.970;10.082;2023-04-19T02:47:21;100133.78;;;9.82;57.59
64189;BME280;50493;50.970;10.082;2023-04-19T02:49:47;100120.59;;;10.00;53.40
64189;BME280;50493;50.970;10.082;2023-04-19T02:52:13;100125.22;;;9.58;53.79
64189;BME280;50493;50.970;10.082;2023-04-19T02:54:38;100127.72;;;9.78;56.92
64189;BME280;50493;50.970;10.082;2023-04-19T02:57:03;100126.06;;;9.63;57.95
64189;BME280;50493;50.970;10.082;2023-04-19T02:59:29;100134.00;;;9.44;57.98
64189;BME280;50493;50.970;10.082;2023-04-19T03:01:54;100130.47;;;9.53;55.83
64189;BME280;50493;50.970;10.082;2023-04-19T03:04:21;100129.50;;;9.70;53.28
64189;BME280;50493;50.970;10.082;2023-04-19T03:06:46;100127.06;;;9.39;58.06
64189;BME280;50493;50.970;10.082;2023-04-19T03:09:12;100124.31;;;9.63;58.55
64189;BME280;50493;50.970;10.082;2023-04-19T03:11:37;100122.53;;;9.73;57.58
64189;BME280;50493;50.970;10.082;2023-04-19T03:14:03;100120.94;;;9.43;58.76
64189;BME280;50493;50.970;10.082;2023-04-19T03:16:28;100125.47;;;9.10;55.93
64189;BME280;50493;50.970;10.082;2023-04-19T03:18:54;100117.66;;;9.04;57.57
64189;BME280;50493;50.970;10.082;2023-04-19T03:21:21;100120.28;;;8.90;55.96
64189;BME280;50493;50.970;10.082;2023-04-19T03:23:51;100117.78;;;8.26;56.88
64189;BME280;50493;50.970;10.082;2023-04-19T03:26:16;100114.25;;;8.78;58.42
64189;BME280;50493;50.970;10.082;2023-04-19T03:28:41;100110.84;;;7.96;57.92
64189;BME280;50493;50.970;10.082;2023-04-19T03:31:07;100107.34;;;8.48;55.49
64189;BME280;50493;50.970;10.082;2023-04-19T03:33:32;100115.06;;;8.84;57.87
64189;BME280;50493;50.970;10.082;2023-04-19T03:35:57;100108.22;;;8.42;57.60
64189;BME280;50493;50.970;10.082;2023-04-19T03:38:24;100105.56;;;8.59;61.71
64189;BME280;50493;50.970;10.082;2023-04-19T03:40:49;100113.41;;;8.52;61.71
64189;BME280;50493;50.970;10.082;2023-04-19T03:43:15;100111.63;;;8.66;60.06
64189;BME280;50493;50.970;10.082;2023-04-19T03:45:40;100106.38;;;8.88;60.81
64189;BME280;50493;50.970;10.082;2023-04-19T03:48:06;100099.50;;;8.56;56.75
64189;BME280;50493;50.970;10.082;2023-04-19T03:50:31;100099.50;;;8.59;61.56
64189;BME280;50493;50.970;10.082;2023-04-19T03:52:56;100103.72;;;9.06;57.87
64189;BME280;50493;50.970;10.082;2023-04-19T03:55:23;100111.63;;;8.74;61.39
64189;BME280;50493;50.970;10.082;2023-04-19T03:57:48;100113.41;;;8.53;62.12
64189;BME280;50493;50.970;10.082;2023-04-19T04:00:14;100109.94;;;8.56;59.14
64189;BME280;50493;50.970;10.082;2023-04-19T04:02:40;100112.50;;;8.70;57.10
64189;BME280;50493;50.970;10.082;2023-04-19T04:05:06;100109.03;;;8.63;56.26
64189;BME280;50493;50.970;10.082;2023-04-19T04:07:31;100111.72;;;8.24;54.64
64189;BME280;50493;50.970;10.082;2023-04-19T04:09:57;100117.78;;;7.95;55.35
64189;BME280;50493;50.970;10.082;2023-04-19T04:12:23;100109.09;;;8.31;55.50
64189;BME280;50493;50.970;10.082;2023-04-19T04:14:49;100105.56;;;8.69;56.80
64189;BME280;50493;50.970;10.082;2023-04-19T04:17:14;100108.09;;;9.03;56.93
64189;BME280;50493;50.970;10.082;2023-04-19T04:19:39;100114.22;;;9.00;58.67
64189;BME280;50493;50.970;10.082;2023-04-19T04:22:05;100117.69;;;8.79;60.79
64189;BME280;50493;50.970;10.082;2023-04-19T04:24:36;100116.75;;;9.09;57.89
64189;BME280;50493;50.970;10.082;2023-04-19T04:27:02;100119.31;;;9.19;58.71
64189;BME280;50493;50.970;10.082;2023-04-19T04:29:31;100125.47;;;9.08;58.14
64189;BME280;50493;50.970;10.082;2023-04-19T04:31:56;100115.97;;;8.78;57.02
64189;BME280;50493;50.970;10.082;2023-04-19T04:34:22;100117.75;;;8.65;53.46
64189;BME280;50493;50.970;10.082;2023-04-19T04:36:48;100109.91;;;8.53;60.62
64189;BME280;50493;50.970;10.082;2023-04-19T04:39:14;100110.78;;;8.66;60.59
64189;BME280;50493;50.970;10.082;2023-04-19T04:41:40;100116.06;;;8.19;54.64
64189;BME280;50493;50.970;10.082;2023-04-19T04:44:06;100107.38;;;8.33;60.66
64189;BME280;50493;50.970;10.082;2023-04-19T04:46:34;100116.88;;;8.51;54.86
64189;BME280;50493;50.970;10.082;2023-04-19T04:49:00;100122.13;;;8.48;56.14
64189;BME280;50493;50.970;10.082;2023-04-19T04:51:25;100120.38;;;8.40;57.63
64189;BME280;50493;50.970;10.082;2023-04-19T04:53:51;100127.31;;;7.89;56.94
64189;BME280;50493;50.970;10.082;2023-04-19T04:56:16;100125.56;;;7.68;58.26
64189;BME280;50493;50.970;10.082;2023-04-19T04:58:42;100131.56;;;7.50;59.09
64189;BME280;50493;50.970;10.082;2023-04-19T05:01:07;100140.53;;;6.46;59.50
64189;BME280;50493;50.970;10.082;2023-04-19T05:03:34;100130.50;;;7.09;58.77
64189;BME280;50493;50.970;10.082;2023-04-19T05:05:59;100139.16;;;7.00;59.33
64189;BME280;50493;50.970;10.082;2023-04-19T05:08:25;100136.88;;;7.85;61.28
64189;BME280;50493;50.970;10.082;2023-04-19T05:10:51;100134.19;;;7.53;55.67
64189;BME280;50493;50.970;10.082;2023-04-19T05:13:16;100139.44;;;7.74;60.48
64189;BME280;50493;50.970;10.082;2023-04-19T05:15:41;100144.63;;;7.71;55.06
64189;BME280;50493;50.970;10.082;2023-04-19T05:18:07;100147.22;;;7.73;59.91
64189;BME280;50493;50.970;10.082;2023-04-19T05:20:33;100144.66;;;7.77;61.65
64189;BME280;50493;50.970;10.082;2023-04-19T05:22:59;100140.06;;;7.10;57.63
64189;BME280;50493;50.970;10.082;2023-04-19T05:25:27;100122.88;;;7.35;58.58
64189;BME280;50493;50.970;10.082;2023-04-19T05:27:52;100136.66;;;7.25;54.98
64189;BME280;50493;50.970;10.082;2023-04-19T05:30:18;100122.88;;;7.37;54.26
64189;BME280;50493;50.970;10.082;2023-04-19T05:32:44;100134.16;;;7.47;57.67
64189;BME280;50493;50.970;10.082;2023-04-19T05:35:09;100128.97;;;7.47;53.44
64189;BME280;50493;50.970;10.082;2023-04-19T05:37:37;100139.41;;;7.62;56.79
64189;BME280;50493;50.970;10.082;2023-04-19T05:40:03;100132.34;;;7.27;54.62
64189;BME280;50493;50.970;10.082;2023-04-19T05:42:34;100143.84;;;8.12;58.35
64189;BME280;50493;50.970;10.082;2023-04-19T05:44:59;100152.34;;;7.39;52.26
64189;BME280;50493;50.970;10.082;2023-04-19T05:47:25;100132.31;;;7.24;57.14
64189;BME280;50493;50.970;10.082;2023-04-19T05:49:50;100142.97;;;6.22;53.17
64189;BME280;50493;50.970;10.082;2023-04-19T05:52:15;100134.00;;;7.14;56.38
64189;BME280;50493;50.970;10.082;2023-04-19T05:54:42;100138.06;;;6.64;51.83
64189;BME280;50493;50.970;10.082;2023-04-19T05:57:08;100128.16;;;7.75;48.98
64189;BME280;50493;50.970;10.082;2023-04-19T05:59:34;100125.53;;;8.71;55.29
64189;BME280;50493;50.970;10.082;2023-04-19T06:01:59;100127.28;;;8.72;52.40
64189;BME280;50493;50.970;10.082;2023-04-19T06:04:25;100134.25;;;8.45;53.50
64189;BME280;50493;50.970;10.082;2023-04-19T06:06:50;100132.53;;;8.20;55.31
64189;BME280;50493;50.970;10.082;2023-04-19T06:09:16;100137.69;;;7.67;50.15
64189;BME280;50493;50.970;10.082;2023-04-19T06:11:44;100140.88;;;6.98;53.69
64189;BME280;50493;50.970;10.082;2023-04-19T06:14:09;100129.00;;;8.67;49.46
64189;BME280;50493;50.970;10.082;2023-04-19T06:16:35;100128.97;;;8.89;52.84
64189;BME280;50493;50.970;10.082;2023-04-19T06:19:00;100132.50;;;8.68;51.46
64189;BME280;50493;50.970;10.082;2023-04-19T06:21:28;100135.91;;;8.85;47.36
64189;BME280;50493;50.970;10.082;2023-04-19T06:23:54;100142.06;;;7.93;59.56
64189;BME280;50493;50.970;10.082;2023-04-19T06:26:19;100138.63;;;8.45;55.19
64189;BME280;50493;50.970;10.082;2023-04-19T06:28:46;100136.00;;;8.50;47.53
64189;BME280;50493;50.970;10.082;2023-04-19T06:31:11;100144.69;;;8.02;58.21
64189;BME280;50493;50.970;10.082;2023-04-19T06:33:36;100137.75;;;8.31;54.28
64189;BME280;50493;50.970;10.082;2023-04-19T06:36:02;100148.06;;;8.88;47.10
64189;BME280;50493;50.970;10.082;2023-04-19T06:38:28;100141.16;;;8.87;45.82
64189;BME280;50493;50.970;10.082;2023-04-19T06:40:53;100134.13;;;9.20;48.70
64189;BME280;50493;50.970;10.082;2023-04-19T06:43:19;100126.72;;;10.95;40.05
64189;BME280;50493;50.970;10.082;2023-04-19T06:45:46;100144.31;;;9.66;43.32
64189;BME280;50493;50.970;10.082;2023-04-19T06:48:12;100144.75;;;11.19;37.90
64189;BME280;50493;50.970;10.082;2023-04-19T06:50:37;100139.66;;;11.06;40.75
64189;BME280;50493;50.970;10.082;2023-04-19T06:53:03;100137.09;;;10.08;41.87
64189;BME280;50493;50.970;10.082;2023-04-19T06:55:28;100137.91;;;10.17;39.36
64189;BME280;50493;50.970;10.082;2023-04-19T06:57:54;100140.59;;;10.01;38.98
64189;BME280;50493;50.970;10.082;2023-04-19T07:00:19;100128.00;;;10.56;40.05
64189;BME280;50493;50.970;10.082;2023-04-19T07:02:47;100133.59;;;10.08;46.44
64189;BME280;50493;50.970;10.082;2023-04-19T07:05:13;100125.97;;;11.53;36.31
64189;BME280;50493;50.970;10.082;2023-04-19T07:07:38;100128.94;;;10.47;43.39
64189;BME280;50493;50.970;10.082;2023-04-19T07:10:06;100122.41;;;12.69;39.68
64189;BME280;50493;50.970;10.082;2023-04-19T07:12:32;100110.28;;;13.51;32.99
64189;BME280;50493;50.970;10.082;2023-04-19T07:14:57;100126.59;;;13.64;32.97
64189;BME280;50493;50.970;10.082;2023-04-19T07:17:23;100124.06;;;11.67;38.11
64189;BME280;50493;50.970;10.082;2023-04-19T07:19:49;100116.59;;;12.52;40.05
64189;BME280;50493;50.970;10.082;2023-04-19T07:22:15;100130.94;;;10.14;35.31
64189;BME280;50493;50.970;10.082;2023-04-19T07:24:40;100111.31;;;12.02;34.66
64189;BME280;50493;50.970;10.082;2023-04-19T07:27:06;100106.72;;;13.11;41.93
64189;BME280;50493;50.970;10.082;2023-04-19T07:29:33;100107.88;;;13.40;33.71
64189;BME280;50493;50.970;10.082;2023-04-19T07:31:58;100101.25;;;13.24;33.51
64189;BME280;50493;50.970;10.082;2023-04-19T07:34:25;100105.72;;;10.98;34.23
64189;BME280;50493;50.970;10.082;2023-04-19T07:36:52;100110.53;;;12.96;32.49
64189;BME280;50493;50.970;10.082;2023-04-19T07:39:17;100108.81;;;11.30;36.98
64189;BME280;50493;50.970;10.082;2023-04-19T07:41:43;100108.44;;;9.97;34.79
64189;BME280;50493;50.970;10.082;2023-04-19T07:44:09;100097.22;;;12.10;46.74
64189;BME280;50493;50.970;10.082;2023-04-19T07:46:36;100091.56;;;13.26;33.93
64189;BME280;50493;50.970;10.082;2023-04-19T07:49:01;100100.41;;;11.08;34.34
64189;BME280;50493;50.970;10.082;2023-04-19T07:51:27;100086.06;;;12.96;45.58
64189;BME280;50493;50.970;10.082;2023-04-19T07:53:54;100102.06;;;13.65;32.48
64189;BME280;50493;50.970;10.082;2023-04-19T07:56:21;100081.88;;;11.87;35.61
64189;BME280;50493;50.970;10.082;2023-04-19T07:58:46;100094.13;;;13.68;35.31
64189;BME280;50493;50.970;10.082;2023-04-19T08:01:11;100094.03;;;12.90;32.82
64189;BME280;50493;50.970;10.082;2023-04-19T08:03:37;100102.38;;;12.15;32.68
64189;BME280;50493;50.970;10.082;2023-04-19T08:06:03;100105.53;;;13.67;31.54
64189;BME280;50493;50.970;10.082;2023-04-19T08:08:30;100099.47;;;12.82;34.80
64189;BME280;50493;50.970;10.082;2023-04-19T08:10:57;100097.78;;;13.22;42.62
64189;BME280;50493;50.970;10.082;2023-04-19T08:13:22;100097.63;;;13.69;37.55
64189;BME280;50493;50.970;10.082;2023-04-19T08:15:48;100099.44;;;13.26;42.94
64189;BME280;50493;50.970;10.082;2023-04-19T08:18:13;100095.38;;;14.27;38.42
64189;BME280;50493;50.970;10.082;2023-04-19T08:20:38;100092.34;;;14.75;30.38
64189;BME280;50493;50.970;10.082;2023-04-19T08:23:06;100106.63;;;12.72;31.97
64189;BME280;50493;50.970;10.082;2023-04-19T08:25:33;100104.63;;;11.84;32.21
64189;BME280;50493;50.970;10.082;2023-04-19T08:28:00;100102.63;;;13.40;31.02
64189;BME280;50493;50.970;10.082;2023-04-19T08:30:25;100104.34;;;13.80;40.64
64189;BME280;50493;50.970;10.082;2023-04-19T08:32:51;100097.91;;;13.56;30.32
64189;BME280;50493;50.970;10.082;2023-04-19T08:35:16;100092.38;;;12.86;34.18
64189;BME280;50493;50.970;10.082;2023-04-19T08:37:41;100087.81;;;14.47;40.11
64189;BME280;50493;50.970;10.082;2023-04-19T08:40:07;100098.69;;;14.66;42.00
64189;BME280;50493;50.970;10.082;2023-04-19T08:42:34;100082.97;;;14.32;31.99
64189;BME280;50493;50.970;10.082;2023-04-19T08:45:02;100100.41;;;13.61;33.39
64189;BME280;50493;50.970;10.082;2023-04-19T08:47:31;100086.16;;;12.43;39.46
64189;BME280;50493;50.970;10.082;2023-04-19T08:49:58;100086.28;;;14.04;37.90
64189;BME280;50493;50.970;10.082;2023-04-19T08:52:24;100084.50;;;14.06;41.15
64189;BME280;50493;50.970;10.082;2023-04-19T08:54:51;100075.41;;;14.53;32.64
64189;BME280;50493;50.970;10.082;2023-04-19T08:57:18;100090.41;;;12.97;28.42
64189;BME280;50493;50.970;10.082;2023-04-19T08:59:43;100073.03;;;12.44;37.34
64189;BME280;50493;50.970;10.082;2023-04-19T09:02:14;100080.25;;;10.32;34.23
64189;BME280;50493;50.970;10.082;2023-04-19T09:04:40;100056.00;;;13.88;30.98
64189;BME280;50493;50.970;10.082;2023-04-19T09:07:05;100067.16;;;12.30;30.68
64189;BME280;50493;50.970;10.082;2023-04-19T09:09:32;100061.19;;;11.69;36.59
64189;BME280;50493;50.970;10.082;2023-04-19T09:11:58;100060.63;;;13.76;35.28
64189;BME280;50493;50.970;10.082;2023-04-19T09:14:24;100059.44;;;13.14;38.28
64189;BME280;50493;50.970;10.082;2023-04-19T09:16:50;100074.59;;;11.45;29.82
64189;BME280;50493;50.970;10.082;2023-04-19T09:19:20;100046.63;;;14.13;37.50
64189;BME280;50493;50.970;10.082;2023-04-19T09:21:45;100049.03;;;14.23;35.79
64189;BME280;50493;50.970;10.082;2023-04-19T09:24:11;100049.56;;;14.01;28.57
64189;BME280;50493;50.970;10.082;2023-04-19T09:26:36;100032.03;;;14.02;29.05
64189;BME280;50493;50.970;10.082;2023-04-19T09:29:03;100034.50;;;14.72;28.35
64189;BME280;50493;50.970;10.082;2023-04-19T09:31:30;100038.13;;;14.37;28.51
64189;BME280;50493;50.970;10.082;2023-04-19T09:33:56;100037.75;;;10.97;29.48
64189;BME280;50493;50.970;10.082;2023-04-19T09:36:30;100031.97;;;12.43;35.55
64189;BME280;50493;50.970;10.082;2023-04-19T09:38:57;100023.91;;;14.44;30.43
64189;BME280;50493;50.970;10.082;2023-04-19T09:41:23;100021.88;;;14.85;37.79
64189;BME280;50493;50.970;10.082;2023-04-19T09:43:49;100013.88;;;13.15;40.59
64189;BME280;50493;50.970;10.082;2023-04-19T09:46:29;100013.69;;;12.84;35.79
64189;BME280;50493;50.970;10.082;2023-04-19T09:48:55;100006.34;;;14.11;36.65
64189;BME280;50493;50.970;10.082;2023-04-19T09:51:41;100016.28;;;12.40;27.41
64189;BME280;50493;50.970;10.082;2023-04-19T09:54:07;100010.47;;;11.74;26.88
64189;BME280;50493;50.970;10.082;2023-04-19T09:56:32;100010.91;;;12.92;26.32
64189;BME280;50493;50.970;10.082;2023-04-19T09:59:01;100004.19;;;11.85;27.40
64189;BME280;50493;50.970;10.082;2023-04-19T10:01:26;99992.94;;;13.14;26.26
64189;BME280;50493;50.970;10.082;2023-04-19T10:03:53;99996.19;;;11.36;28.65
64189;BME280;50493;50.970;10.082;2023-04-19T10:06:19;99989.03;;;14.04;32.05
64189;BME280;50493;50.970;10.082;2023-04-19T10:08:48;99975.25;;;14.59;25.14
64189;BME280;50493;50.970;10.082;2023-04-19T10:11:14;99989.16;;;13.26;27.04
64189;BME280;50493;50.970;10.082;2023-04-19T10:13:40;99969.94;;;15.20;31.47
64189;BME280;50493;50.970;10.082;2023-04-19T10:16:07;99975.66;;;14.13;27.12
64189;BME280;50493;50.970;10.082;2023-04-19T10:18:33;99972.31;;;13.71;27.95
64189;BME280;50493;50.970;10.082;2023-04-19T10:21:00;99968.44;;;14.51;27.30
64189;BME280;50493;50.970;10.082;2023-04-19T10:23:28;99965.81;;;14.81;28.91
64189;BME280;50493;50.970;10.082;2023-04-19T10:25:56;99965.91;;;16.88;38.20
64189;BME280;50493;50.970;10.082;2023-04-19T10:28:22;99955.75;;;17.88;29.15
64189;BME280;50493;50.970;10.082;2023-04-19T10:30:54;99947.81;;;17.88;23.54
64189;BME280;50493;50.970;10.082;2023-04-19T10:33:25;99965.78;;;14.22;30.70
64189;BME280;50493;50.970;10.082;2023-04-19T10:35:55;99958.03;;;14.15;34.60
64189;BME280;50493;50.970;10.082;2023-04-19T10:38:34;99950.97;;;15.64;26.27
64189;BME280;50493;50.970;10.082;2023-04-19T10:41:02;99951.22;;;13.75;28.26
64189;BME280;50493;50.970;10.082;2023-04-19T10:43:36;99942.50;;;14.39;36.95
64189;BME280;50493;50.970;10.082;2023-04-19T10:46:06;99961.91;;;12.50;32.71
64189;BME280;50493;50.970;10.082;2023-04-19T10:48:33;99943.03;;;13.52;44.73
64189;BME280;50493;50.970;10.082;2023-04-19T10:51:00;99927.34;;;15.34;42.21
64189;BME280;50493;50.970;10.082;2023-04-19T10:53:45;99921.13;;;13.86;27.67
64189;BME280;50493;50.970;10.082;2023-04-19T10:56:12;99926.31;;;12.82;29.27
64189;BME280;50493;50.970;10.082;2023-04-19T10:59:15;99928.53;;;13.71;35.61
64189;BME280;50493;50.970;10.082;2023-04-19T11:01:47;99919.53;;;12.70;29.29
64189;BME280;50493;50.970;10.082;2023-04-19T11:04:14;99913.66;;;14.66;29.42
64189;BME280;50493;50.970;10.082;2023-04-19T11:06:59;99911.56;;;11.89;30.79
64189;BME280;50493;50.970;10.082;2023-04-19T11:09:26;99903.81;;;12.69;44.82
64189;BME280;50493;50.970;10.082;2023-04-19T11:11:57;99911.94;;;11.67;30.65
64189;BME280;50493;50.970;10.082;2023-04-19T11:14:23;99917.50;;;11.47;30.29
64189;BME280;50493;50.970;10.082;2023-04-19T11:16:48;99907.34;;;9.94;34.71
64189;BME280;50493;50.970;10.082;2023-04-19T11:19:14;99891.22;;;12.02;46.42
64189;BME280;50493;50.970;10.082;2023-04-19T11:21:39;99900.22;;;13.13;39.98
64189;BME280;50493;50.970;10.082;2023-04-19T11:24:05;99890.44;;;11.98;30.72
64189;BME280;50493;50.970;10.082;2023-04-19T11:26:32;99885.72;;;12.15;31.56
64189;BME280;50493;50.970;10.082;2023-04-19T11:28:59;99886.19;;;13.83;31.37
64189;BME280;50493;50.970;10.082;2023-04-19T11:31:24;99883.63;;;14.73;39.11
64189;BME280;50493;50.970;10.082;2023-04-19T11:33:50;99870.28;;;15.60;27.46
64189;BME280;50493;50.970;10.082;2023-04-19T11:36:15;99879.06;;;13.20;30.45
64189;BME280;50493;50.970;10.082;2023-04-19T11:38:46;99877.38;;;14.47;31.46
64189;BME280;50493;50.970;10.082;2023-04-19T11:41:11;99874.03;;;11.87;38.49
64189;BME280;50493;50.970;10.082;2023-04-19T11:43:36;99860.66;;;14.50;32.31
64189;BME280;50493;50.970;10.082;2023-04-19T11:46:07;99861.38;;;13.94;29.51
64189;BME280;50493;50.970;10.082;2023-04-19T11:48:33;99854.47;;;13.57;33.81
64189;BME280;50493;50.970;10.082;2023-04-19T11:50:59;99863.53;;;13.45;29.78
64189;BME280;50493;50.970;10.082;2023-04-19T11:53:26;99862.16;;;13.30;35.39
64189;BME280;50493;50.970;10.082;2023-04-19T11:55:53;99853.34;;;12.57;43.13
64189;BME280;50493;50.970;10.082;2023-04-19T11:58:23;99851.84;;;13.57;36.19
64189;BME280;50493;50.970;10.082;2023-04-19T12:00:50;99850.13;;;16.09;28.57
64189;BME280;50493;50.970;10.082;2023-04-19T12:03:19;99846.34;;;14.29;36.08
64189;BME280;50493;50.970;10.082;2023-04-19T12:05:51;99846.00;;;14.98;30.98
64189;BME280;50493;50.970;10.082;2023-04-19T12:08:16;99850.25;;;14.15;44.05
64189;BME280;50493;50.970;10.082;2023-04-19T12:10:54;99841.56;;;15.27;30.41
64189;BME280;50493;50.970;10.082;2023-04-19T12:13:20;99847.75;;;16.01;31.05
64189;BME280;50493;50.970;10.082;2023-04-19T12:15:45;99849.31;;;13.54;27.44
64189;BME280;50493;50.970;10.082;2023-04-19T12:18:13;99853.09;;;13.07;31.21
64189;BME280;50493;50.970;10.082;2023-04-19T12:20:45;99836.88;;;15.85;29.19
64189;BME280;50493;50.970;10.082;2023-04-19T12:23:10;99843.91;;;14.81;28.56
64189;BME280;50493;50.970;10.082;2023-04-19T12:25:38;99853.59;;;13.58;29.06
64189;BME280;50493;50.970;10.082;2023-04-19T12:28:04;99837.09;;;15.02;49.06
64189;BME280;50493;50.970;10.082;2023-04-19T12:30:29;99841.56;;;15.27;30.17
64189;BME280;50493;50.970;10.082;2023-04-19T12:32:55;99831.75;;;16.06;50.08
64189;BME280;50493;50.970;10.082;2023-04-19T12:35:20;99824.41;;;16.38;38.10
64189;BME280;50493;50.970;10.082;2023-04-19T12:37:48;99832.06;;;15.21;31.44
64189;BME280;50493;50.970;10.082;2023-04-19T12:40:14;99826.50;;;13.87;28.86
64189;BME280;50493;50.970;10.082;2023-04-19T12:42:39;99821.88;;;13.64;50.87
64189;BME280;50493;50.970;10.082;2023-04-19T12:45:05;99825.78;;;15.00;49.56